createdAt,value
2018-04-18T05:43:26.455Z,50.00
2018-04-18T05:45:58.383Z,50.00
2018-04-18T05:54:49.496Z,46.20
2018-04-18T05:57:20.839Z,44.80
2018-04-18T05:59:53.565Z,48.20
2018-04-18T06:02:25.747Z,50.80
2018-04-18T06:04:57.713Z,54.00
2018-04-18T06:07:29.282Z,56.10
2018-04-18T06:10:01.056Z,49.60
2018-04-18T06:12:32.366Z,49.50
2018-04-18T06:15:03.674Z,45.60
2018-04-18T06:17:34.676Z,41.60
2018-04-18T06:20:07.274Z,37.10
2018-04-18T06:22:38.563Z,37.00
2018-04-18T06:25:09.498Z,36.20
2018-04-18T06:27:40.730Z,35.90
2018-04-18T06:30:11.143Z,36.40
2018-04-18T06:32:41.997Z,38.20
2018-04-18T06:35:13.087Z,37.80
2018-04-18T06:37:45.460Z,40.80
2018-04-18T06:40:17.743Z,42.80
2018-04-18T06:42:49.028Z,42.80
2018-04-18T06:45:20.338Z,43.10
2018-04-18T06:47:52.318Z,43.90
2018-04-18T06:50:23.453Z,45.60
2018-04-18T06:52:54.425Z,46.10
2018-04-18T06:55:25.223Z,47.70
2018-04-18T06:57:54.935Z,49.10
2018-04-18T07:00:26.440Z,49.60
2018-04-18T07:02:57.526Z,50.60
2018-04-18T07:05:29.152Z,50.80
2018-04-18T07:08:00.139Z,51.20
2018-04-18T07:10:30.649Z,50.90
2018-04-18T07:13:01.483Z,50.50
2018-04-18T07:15:32.627Z,51.20
2018-04-18T07:18:03.783Z,50.50
2018-04-18T07:20:35.225Z,50.20
2018-04-18T07:23:05.637Z,50.40
2018-04-18T07:25:37.404Z,49.60
2018-04-18T07:28:08.942Z,49.50
2018-04-18T07:30:40.893Z,48.80
2018-04-18T07:33:12.200Z,48.70
2018-04-18T07:35:42.816Z,48.70
2018-04-18T07:38:13.678Z,48.70
2018-04-18T07:40:45.106Z,48.50
2018-04-18T07:43:15.950Z,48.50
2018-04-18T07:45:47.000Z,47.80
2018-04-18T07:48:18.327Z,47.90
2018-04-18T07:50:49.862Z,47.50
2018-04-18T07:53:21.260Z,47.00
2018-04-18T07:55:52.434Z,46.80
2018-04-18T07:58:23.513Z,45.80
2018-04-18T08:00:55.125Z,45.80
2018-04-18T08:03:25.970Z,44.70
2018-04-18T08:05:57.338Z,44.10
2018-04-18T08:08:28.578Z,44.00
2018-04-18T08:10:59.671Z,44.00
2018-04-18T08:13:30.723Z,43.20
2018-04-18T08:16:01.546Z,43.00
2018-04-18T08:18:32.266Z,42.60
2018-04-18T08:21:04.699Z,42.10
2018-04-18T08:23:36.062Z,41.60
2018-04-18T08:26:07.146Z,41.50
2018-04-18T08:28:37.733Z,41.40
2018-04-18T08:31:08.926Z,41.70
2018-04-18T08:33:40.332Z,41.20
2018-04-18T08:36:11.607Z,41.10
2018-04-18T08:38:42.678Z,41.60
2018-04-18T08:41:14.330Z,41.10
2018-04-18T08:43:46.123Z,41.30
2018-04-18T08:46:17.272Z,41.30
2018-04-18T08:48:49.804Z,41.20
2018-04-18T08:51:21.751Z,41.20
2018-04-18T08:53:53.894Z,41.10
2018-04-18T08:56:26.416Z,40.50
2018-04-18T08:58:57.542Z,40.30
2018-04-18T09:01:28.749Z,40.20
2018-04-18T09:04:00.465Z,40.20
2018-04-18T09:06:32.283Z,40.50
2018-04-18T09:09:03.242Z,40.30
2018-04-18T09:11:34.586Z,40.10
2018-04-18T09:14:05.395Z,39.50
2018-04-18T09:16:36.500Z,40.00
2018-04-18T09:19:07.943Z,39.70
2018-04-18T09:21:39.376Z,40.60
2018-04-18T09:24:10.046Z,40.10
2018-04-18T09:26:40.859Z,39.40
2018-04-18T09:29:11.549Z,39.60
2018-04-18T09:31:42.607Z,39.60
2018-04-18T09:34:13.458Z,40.20
2018-04-18T09:36:45.338Z,39.70
2018-04-18T09:39:16.585Z,39.60
2018-04-18T09:41:48.608Z,39.80
2018-04-18T09:44:19.817Z,39.80
2018-04-18T09:46:52.166Z,39.40
2018-04-18T09:49:25.185Z,39.30
2018-04-18T09:51:56.727Z,39.60
2018-04-18T09:54:27.755Z,39.50
2018-04-18T09:56:59.874Z,39.70
2018-04-18T09:59:31.615Z,39.10
2018-04-18T10:02:08.171Z,39.00
2018-04-18T10:04:45.183Z,38.90
2018-04-18T10:07:16.859Z,38.40
2018-04-18T10:09:48.583Z,39.30
2018-04-18T10:12:19.879Z,39.30
2018-04-18T10:14:51.138Z,39.40
2018-04-18T10:17:23.375Z,38.90
2018-04-18T10:19:56.676Z,38.20
2018-04-18T10:22:28.980Z,37.90
2018-04-18T10:25:03.058Z,37.80
2018-04-18T10:27:35.223Z,37.90
2018-04-18T10:30:07.223Z,37.80
2018-04-18T10:32:39.670Z,36.80
2018-04-18T10:35:12.560Z,36.80
2018-04-18T10:37:46.712Z,36.80
2018-04-18T10:40:19.460Z,36.40
2018-04-18T10:42:52.745Z,36.80
2018-04-18T10:45:26.193Z,37.60
2018-04-18T10:47:59.342Z,37.80
2018-04-18T10:50:32.073Z,37.30
2018-04-18T10:53:05.176Z,36.80
2018-04-18T10:55:38.301Z,34.40
2018-04-18T10:58:13.179Z,34.20
2018-04-18T11:00:46.880Z,34.10
2018-04-18T11:03:19.555Z,34.90
2018-04-18T11:05:52.754Z,35.80
2018-04-18T11:08:25.296Z,35.70
2018-04-18T11:10:57.447Z,35.20
2018-04-18T11:13:29.457Z,35.90
2018-04-18T11:16:04.034Z,35.70
2018-04-18T11:18:37.158Z,35.10
2018-04-18T11:21:09.846Z,34.60
2018-04-18T11:23:45.438Z,34.10
2018-04-18T11:26:18.240Z,33.80
2018-04-18T11:28:51.132Z,34.50
2018-04-18T11:31:23.429Z,34.90
2018-04-18T11:33:55.785Z,33.80
2018-04-18T11:36:28.011Z,33.80
2018-04-18T11:39:00.501Z,33.90
2018-04-18T11:41:33.412Z,33.70
2018-04-18T11:44:04.366Z,33.70
2018-04-18T11:46:35.780Z,34.10
2018-04-18T11:49:08.403Z,33.30
2018-04-18T11:51:40.721Z,33.30
2018-04-18T11:54:12.351Z,33.50
2018-04-18T11:56:43.633Z,32.40
2018-04-18T11:59:15.756Z,32.20
2018-04-18T12:01:47.924Z,33.00
2018-04-18T12:04:19.314Z,32.40
2018-04-18T12:06:53.038Z,31.80
2018-04-18T12:09:25.237Z,32.40
2018-04-18T12:11:56.403Z,32.00
2018-04-18T12:14:27.493Z,32.50
2018-04-18T12:16:58.647Z,32.20
2018-04-18T12:19:30.788Z,31.00
2018-04-18T12:22:02.087Z,29.40
2018-04-18T12:24:34.227Z,29.00
2018-04-18T12:27:05.335Z,28.50
2018-04-18T12:29:37.336Z,29.80
2018-04-18T12:32:08.280Z,29.90
2018-04-18T12:34:39.106Z,30.00
2018-04-18T12:37:10.292Z,29.30
2018-04-18T12:39:41.631Z,29.80
2018-04-18T12:42:14.877Z,30.10
2018-04-18T12:44:45.508Z,30.00
2018-04-18T12:47:16.819Z,29.60
2018-04-18T12:49:47.803Z,29.20
2018-04-18T12:52:19.129Z,30.00
2018-04-18T12:54:50.438Z,30.70
2018-04-18T12:57:21.427Z,30.60
2018-04-18T12:59:52.466Z,31.10
2018-04-18T13:02:23.939Z,31.30
2018-04-18T13:04:55.660Z,31.50
2018-04-18T13:07:27.507Z,31.60
2018-04-18T13:09:58.828Z,31.70
2018-04-18T13:12:30.160Z,32.40
2018-04-18T13:15:01.633Z,31.70
2018-04-18T13:17:33.503Z,32.00
2018-04-18T13:20:05.385Z,32.40
2018-04-18T13:22:37.175Z,30.70
2018-04-18T13:25:08.861Z,30.40
2018-04-18T13:27:40.338Z,30.40
2018-04-18T13:30:12.878Z,29.00
2018-04-18T13:32:44.575Z,28.30
2018-04-18T13:35:16.434Z,28.10
2018-04-18T13:37:49.274Z,28.80
2018-04-18T13:40:20.548Z,28.80
2018-04-18T13:42:51.983Z,28.00
2018-04-18T13:45:24.277Z,28.40
2018-04-18T13:47:55.594Z,29.10
2018-04-18T13:50:27.688Z,29.40
2018-04-18T13:52:59.132Z,27.90
2018-04-18T13:55:30.634Z,27.80
2018-04-18T13:58:02.847Z,28.50
2018-04-18T14:00:35.199Z,28.20
2018-04-18T14:03:07.276Z,29.10
2018-04-18T14:05:40.042Z,27.60
2018-04-18T14:08:11.975Z,27.80
2018-04-18T14:10:45.081Z,27.10
2018-04-18T14:13:18.189Z,27.00
2018-04-18T14:15:52.334Z,27.30
2018-04-18T14:18:24.383Z,27.30
2018-04-18T14:20:55.592Z,26.30
2018-04-18T14:23:27.516Z,26.50
2018-04-18T14:25:59.758Z,25.10
2018-04-18T14:28:33.054Z,24.50
2018-04-18T14:31:05.220Z,24.50
2018-04-18T14:33:38.743Z,25.30
2018-04-18T14:36:11.461Z,25.30
2018-04-18T14:38:43.206Z,25.10
2018-04-18T14:41:15.557Z,24.50
2018-04-18T14:43:47.838Z,24.40
2018-04-18T14:46:19.889Z,25.40
2018-04-18T14:48:51.974Z,26.00
2018-04-18T14:51:24.257Z,26.40
2018-04-18T14:53:56.227Z,26.70
2018-04-18T14:56:28.560Z,25.30
2018-04-18T14:59:01.214Z,25.10
2018-04-18T15:01:33.987Z,25.00
2018-04-18T15:04:06.044Z,24.60
2018-04-18T15:06:38.309Z,25.60
2018-04-18T15:09:10.195Z,25.90
2018-04-18T15:11:43.846Z,26.60
2018-04-18T15:14:16.675Z,26.60
2018-04-18T15:16:49.735Z,26.10
2018-04-18T15:19:21.905Z,26.10
2018-04-18T15:21:54.839Z,25.60
2018-04-18T15:24:27.850Z,25.60
2018-04-18T15:27:00.042Z,25.80
2018-04-18T15:29:32.466Z,25.90
2018-04-18T15:32:05.466Z,25.60
2018-04-18T15:34:37.665Z,25.30
2018-04-18T15:37:11.335Z,25.80
2018-04-18T15:39:43.233Z,25.90
2018-04-18T15:42:16.533Z,26.30
2018-04-18T15:44:49.494Z,26.40
2018-04-18T15:47:21.742Z,26.50
2018-04-18T15:49:54.430Z,26.80
2018-04-18T15:52:26.766Z,27.00
2018-04-18T15:54:59.017Z,27.40
2018-04-18T15:57:31.586Z,27.70
2018-04-18T16:00:03.310Z,28.20
2018-04-18T16:02:35.245Z,29.10
2018-04-18T16:05:06.548Z,27.80
2018-04-18T16:07:38.284Z,27.60
2018-04-18T16:10:10.063Z,27.30
2018-04-18T16:12:42.172Z,27.50
2018-04-18T16:15:13.522Z,27.60
2018-04-18T16:17:45.357Z,28.30
2018-04-18T16:20:17.370Z,27.20
2018-04-18T16:22:50.330Z,27.50
2018-04-18T16:25:22.909Z,27.50
2018-04-18T16:27:54.576Z,27.60
2018-04-18T16:30:35.674Z,28.30
2018-04-18T16:33:08.753Z,28.70
2018-04-18T16:35:39.900Z,28.70
2018-04-18T16:38:11.969Z,27.90
2018-04-18T16:40:43.585Z,28.60
2018-04-18T16:43:16.046Z,27.70
2018-04-18T16:45:48.614Z,28.50
2018-04-18T16:48:19.998Z,28.50
2018-04-18T16:50:51.269Z,29.80
2018-04-18T16:53:23.216Z,30.20
2018-04-18T16:55:54.336Z,30.30
2018-04-18T16:58:26.043Z,31.20
2018-04-18T17:00:58.040Z,32.40
2018-04-18T17:03:29.978Z,32.30
2018-04-18T17:06:01.219Z,31.40
2018-04-18T17:08:32.916Z,31.90
2018-04-18T17:11:04.615Z,30.90
2018-04-18T17:13:35.514Z,32.50
2018-04-18T17:16:06.824Z,34.20
2018-04-18T17:18:38.071Z,30.10
2018-04-18T17:21:09.714Z,30.90
2018-04-18T17:23:41.299Z,31.40
2018-04-18T17:26:12.880Z,30.70
2018-04-18T17:28:44.375Z,34.60
2018-04-18T17:31:15.792Z,35.10
2018-04-18T17:33:47.578Z,36.70
2018-04-18T17:36:19.393Z,37.70
2018-04-18T17:38:52.293Z,37.90
2018-04-18T17:41:23.442Z,37.90
2018-04-18T17:43:55.410Z,39.20
2018-04-18T17:46:27.661Z,39.40
2018-04-18T17:48:59.112Z,39.30
2018-04-18T17:51:30.157Z,39.70
2018-04-18T17:54:01.622Z,39.80
2018-04-18T17:56:33.703Z,40.30
2018-04-18T17:59:05.348Z,40.30
2018-04-18T18:01:38.778Z,41.60
2018-04-18T18:04:10.157Z,41.50
2018-04-18T18:06:41.170Z,42.10
2018-04-18T18:09:12.476Z,42.50
2018-04-18T18:11:43.594Z,42.70
2018-04-18T18:14:14.766Z,43.30
2018-04-18T18:16:46.042Z,44.20
2018-04-18T18:19:18.894Z,44.60
2018-04-18T18:21:50.380Z,45.30
2018-04-18T18:24:21.927Z,45.50
2018-04-18T18:26:53.204Z,46.30
2018-04-18T18:29:24.499Z,46.40
2018-04-18T18:31:55.348Z,46.90
2018-04-18T18:34:27.198Z,47.30
2018-04-18T18:36:58.451Z,47.30
2018-04-18T18:39:29.405Z,47.50
2018-04-18T18:42:00.483Z,48.90
2018-04-18T18:44:31.667Z,49.50
2018-04-18T18:47:03.585Z,50.70
2018-04-18T18:49:34.254Z,50.70
2018-04-18T18:52:05.558Z,51.00
2018-04-18T18:54:36.765Z,52.50
2018-04-18T18:57:07.811Z,53.30
2018-04-18T18:59:39.104Z,54.00
2018-04-18T19:02:11.074Z,55.70
2018-04-18T19:04:41.692Z,55.70
2018-04-18T19:07:13.161Z,57.20
2018-04-18T19:09:44.279Z,59.10
2018-04-18T19:12:15.423Z,58.40
2018-04-18T19:14:46.526Z,59.20
2018-04-18T19:17:17.706Z,60.40
2018-04-18T19:19:49.058Z,62.60
2018-04-18T19:22:20.633Z,64.50
2018-04-18T19:24:51.808Z,65.20
2018-04-18T19:27:23.573Z,65.40
2018-04-18T19:29:55.529Z,66.30
2018-04-18T19:32:24.858Z,66.30
2018-04-18T19:34:56.190Z,67.60
2018-04-18T19:37:27.320Z,70.40
2018-04-18T19:39:58.468Z,71.00
2018-04-18T19:42:30.213Z,72.90
2018-04-18T19:45:01.273Z,72.80
2018-04-18T19:47:32.530Z,74.40
2018-04-18T19:50:05.354Z,74.00
2018-04-18T19:52:36.335Z,76.70
2018-04-18T19:55:07.564Z,76.00
2018-04-18T19:57:39.599Z,77.70
2018-04-18T20:00:10.508Z,77.60
2018-04-18T20:02:42.071Z,77.80
2018-04-18T20:05:13.530Z,77.50
2018-04-18T20:07:44.654Z,79.80
2018-04-18T20:10:16.572Z,78.60
2018-04-18T20:12:47.742Z,78.60
2018-04-18T20:15:18.705Z,79.70
2018-04-18T20:17:49.964Z,79.90
2018-04-18T20:20:21.088Z,81.30
2018-04-18T20:22:52.174Z,81.10
2018-04-18T20:25:24.286Z,82.10
2018-04-18T20:27:56.165Z,82.10
2018-04-18T20:30:27.424Z,82.10
2018-04-18T20:32:58.524Z,84.00
2018-04-18T20:35:29.545Z,84.00
2018-04-18T20:38:00.558Z,84.20
2018-04-18T20:40:31.876Z,84.20
2018-04-18T20:43:02.704Z,83.90
2018-04-18T20:45:34.009Z,83.60
2018-04-18T20:48:05.352Z,84.50
2018-04-18T20:50:36.539Z,85.30
2018-04-18T20:53:07.483Z,85.20
2018-04-18T20:55:38.799Z,85.90
2018-04-18T20:58:09.943Z,85.60
2018-04-18T21:00:40.929Z,85.60
2018-04-18T21:03:13.221Z,86.40
2018-04-18T21:05:44.706Z,86.40
2018-04-18T21:08:15.535Z,86.80
2018-04-18T21:10:46.660Z,87.00
2018-04-18T21:13:17.852Z,87.80
2018-04-18T21:15:50.246Z,88.60
2018-04-18T21:18:21.156Z,88.70
2018-04-18T21:20:52.428Z,88.80
2018-04-18T21:23:24.977Z,89.60
2018-04-18T21:25:55.875Z,89.40
2018-04-18T21:28:27.639Z,90.00
2018-04-18T21:30:59.644Z,90.10
2018-04-18T21:33:30.500Z,90.10
2018-04-18T21:36:01.795Z,90.70
2018-04-18T21:38:32.597Z,90.50
2018-04-18T21:41:03.915Z,90.70
2018-04-18T21:43:34.850Z,91.00
2018-04-18T21:46:06.010Z,90.90
2018-04-18T21:48:37.070Z,91.10
2018-04-18T21:51:08.527Z,91.30
2018-04-18T21:53:39.738Z,91.60
2018-04-18T21:56:10.923Z,91.60
2018-04-18T21:58:42.263Z,91.90
2018-04-18T22:01:13.088Z,92.00
2018-04-18T22:03:44.282Z,92.10
2018-04-18T22:06:15.494Z,92.20
2018-04-18T22:08:46.926Z,92.40
2018-04-18T22:11:18.901Z,92.20
2018-04-18T22:13:50.870Z,92.40
2018-04-18T22:16:22.522Z,92.50
2018-04-18T22:18:54.330Z,92.40
2018-04-18T22:21:25.400Z,92.50
2018-04-18T22:23:56.743Z,92.20
2018-04-18T22:26:27.886Z,92.20
2018-04-18T22:28:58.969Z,92.20
2018-04-18T22:31:31.037Z,92.20
2018-04-18T22:34:02.186Z,92.20
2018-04-18T22:36:33.409Z,92.40
2018-04-18T22:39:05.565Z,92.50
2018-04-18T22:41:37.371Z,92.80
2018-04-18T22:44:08.256Z,92.80
2018-04-18T22:46:39.159Z,92.50
2018-04-18T22:49:10.295Z,92.60
2018-04-18T22:51:41.049Z,92.60
2018-04-18T22:54:12.064Z,92.60
2018-04-18T22:56:42.766Z,92.30
2018-04-18T22:59:14.566Z,92.30
2018-04-18T23:01:45.996Z,92.20
2018-04-18T23:04:17.218Z,92.50
2018-04-18T23:06:49.159Z,92.60
2018-04-18T23:09:20.099Z,92.50
2018-04-18T23:11:51.005Z,92.60
2018-04-18T23:14:22.073Z,92.70
2018-04-18T23:16:52.981Z,92.60
2018-04-18T23:19:23.975Z,92.60
2018-04-18T23:21:55.306Z,92.70
2018-04-18T23:24:26.269Z,92.70
2018-04-18T23:26:57.473Z,92.90
2018-04-18T23:29:28.413Z,92.80
2018-04-18T23:31:59.602Z,92.90
2018-04-18T23:34:31.328Z,93.00
2018-04-18T23:37:03.288Z,92.80
2018-04-18T23:39:35.000Z,92.80
2018-04-18T23:42:06.036Z,92.80
2018-04-18T23:44:35.533Z,92.70
2018-04-18T23:47:06.775Z,93.30
2018-04-18T23:49:37.845Z,92.90
2018-04-18T23:52:09.335Z,92.90
2018-04-18T23:54:41.190Z,92.90
2018-04-18T23:57:12.288Z,92.90
2018-04-18T23:59:43.089Z,93.00
